createdAt,value
2022-10-23T00:03:30.777Z,99912.85
2022-10-23T00:08:35.278Z,99918.80
2022-10-23T00:13:41.492Z,99922.19
2022-10-23T00:18:46.880Z,99922.66
2022-10-23T00:23:51.776Z,99931.88
2022-10-23T00:28:56.503Z,99928.73
2022-10-23T00:34:00.723Z,99934.52
2022-10-23T00:39:06.006Z,99929.77
2022-10-23T00:44:31.238Z,99933.65
2022-10-23T00:49:35.577Z,99934.92
2022-10-23T00:54:51.602Z,99936.96
2022-10-23T00:59:55.872Z,99937.02
2022-10-23T01:05:00.526Z,99945.80
2022-10-23T01:10:35.302Z,99951.67
2022-10-23T01:15:50.213Z,99954.89
2022-10-23T01:21:00.455Z,99953.26
2022-10-23T01:26:36.515Z,99947.73
2022-10-23T01:31:46.422Z,99949.05
2022-10-23T01:36:53.129Z,99953.98
2022-10-23T01:42:04.716Z,99957.71
2022-10-23T01:47:12.382Z,99957.83
2022-10-23T01:52:19.138Z,99952.40
2022-10-23T01:57:27.244Z,99955.13
2022-10-23T02:02:34.160Z,99951.80
2022-10-23T02:07:39.634Z,99948.98
2022-10-23T02:13:04.684Z,99954.44
2022-10-23T02:18:23.738Z,99958.31
2022-10-23T02:23:37.168Z,99962.50
2022-10-23T02:28:47.931Z,99964.55
2022-10-23T02:33:51.938Z,99959.55
2022-10-23T02:38:56.106Z,99965.61
2022-10-23T02:44:05.247Z,99970.29
2022-10-23T02:49:43.995Z,99971.75
2022-10-23T02:55:15.914Z,99966.75
2022-10-23T03:00:22.964Z,99966.17
2022-10-23T03:05:29.439Z,99968.96
2022-10-23T03:10:33.667Z,99976.38
2022-10-23T03:15:38.527Z,99985.61
2022-10-23T03:20:43.644Z,99986.29
2022-10-23T03:25:47.541Z,99981.01
2022-10-23T03:30:50.970Z,99976.55
2022-10-23T03:35:55.462Z,99970.38
2022-10-23T03:40:58.845Z,99982.30
2022-10-23T03:46:03.210Z,99991.35
2022-10-23T03:51:09.032Z,99996.98
2022-10-23T03:56:13.905Z,99995.98
2022-10-23T04:01:18.697Z,99993.86
2022-10-23T04:06:23.311Z,99999.90
2022-10-23T04:11:28.359Z,99999.80
2022-10-23T04:16:32.663Z,99998.80
2022-10-23T04:21:36.863Z,99996.90
2022-10-23T04:26:41.864Z,99998.76
2022-10-23T04:31:46.049Z,99998.20
2022-10-23T04:36:50.466Z,100006.24
2022-10-23T04:41:55.671Z,100003.80
2022-10-23T04:46:59.748Z,100000.16
2022-10-23T04:52:04.431Z,100006.66
2022-10-23T04:57:08.102Z,100006.67
2022-10-23T05:02:12.455Z,100006.34
2022-10-23T05:07:18.275Z,100009.41
2022-10-23T05:12:23.219Z,100015.30
2022-10-23T05:17:35.500Z,100012.20
2022-10-23T05:22:42.237Z,100014.80
2022-10-23T05:27:45.836Z,100016.89
2022-10-23T05:32:50.737Z,100018.15
2022-10-23T05:37:56.489Z,100020.34
2022-10-23T05:43:00.547Z,100019.06
2022-10-23T05:48:16.824Z,100017.37
2022-10-23T05:53:27.107Z,100018.61
2022-10-23T05:58:31.219Z,100019.27
2022-10-23T06:03:36.985Z,100023.92
2022-10-23T06:08:41.264Z,100030.86
2022-10-23T06:13:47.034Z,100028.30
2022-10-23T06:18:51.389Z,100029.88
2022-10-23T06:23:56.532Z,100040.25
2022-10-23T06:29:00.977Z,100044.84
2022-10-23T06:34:04.390Z,100047.91
2022-10-23T06:39:08.841Z,100055.00
2022-10-23T06:44:13.012Z,100055.17
2022-10-23T06:49:17.092Z,100047.73
2022-10-23T06:54:21.107Z,100053.18
2022-10-23T06:59:26.128Z,100059.79
2022-10-23T07:04:30.639Z,100059.11
2022-10-23T07:09:36.684Z,100062.41
2022-10-23T07:14:40.524Z,100050.86
2022-10-23T07:19:44.892Z,100040.42
2022-10-23T07:24:48.490Z,100047.54
2022-10-23T07:29:53.436Z,100054.44
2022-10-23T07:34:57.189Z,100052.13
2022-10-23T07:40:01.546Z,100054.39
2022-10-23T07:45:07.828Z,100046.75
2022-10-23T07:50:12.402Z,100046.08
2022-10-23T07:55:17.279Z,100042.42
2022-10-23T08:00:21.153Z,100047.21
2022-10-23T08:05:24.853Z,100052.52
2022-10-23T08:10:28.656Z,100051.76
2022-10-23T08:15:32.704Z,100059.21
2022-10-23T08:20:41.317Z,100060.21
2022-10-23T08:25:45.514Z,100059.96
2022-10-23T08:30:49.460Z,100064.90
2022-10-23T08:35:53.181Z,100063.30
2022-10-23T08:40:56.635Z,100066.21
2022-10-23T08:46:09.652Z,100068.31
2022-10-23T08:51:29.694Z,100063.85
2022-10-23T08:56:39.997Z,100069.86
2022-10-23T09:02:20.636Z,100072.27
2022-10-23T09:07:45.685Z,100074.06
2022-10-23T09:12:49.690Z,100074.52
2022-10-23T09:17:59.723Z,100087.77
2022-10-23T09:23:25.064Z,100095.79
2022-10-23T09:28:32.660Z,100101.29
2022-10-23T09:33:40.943Z,100103.18
2022-10-23T09:38:50.246Z,100103.27
2022-10-23T09:44:02.547Z,100100.42
2022-10-23T09:49:08.140Z,100100.16
2022-10-23T09:54:17.202Z,100099.21
2022-10-23T09:59:33.172Z,100110.48
2022-10-23T10:04:40.764Z,100115.42
2022-10-23T10:09:45.857Z,100115.67
2022-10-23T10:15:02.546Z,100109.15
2022-10-23T10:20:19.731Z,100105.94
2022-10-23T10:25:35.032Z,100109.77
2022-10-23T10:31:12.013Z,100106.93
2022-10-23T10:36:31.007Z,100108.43
2022-10-23T10:41:36.147Z,100111.98
2022-10-23T10:46:45.869Z,100111.33
2022-10-23T10:52:14.147Z,100109.07
2022-10-23T10:57:31.459Z,100114.11
2022-10-23T11:02:41.998Z,100117.04
2022-10-23T11:07:59.605Z,100107.77
2022-10-23T11:13:03.174Z,100096.61
2022-10-23T11:18:16.354Z,100087.55
2022-10-23T11:23:47.473Z,100089.91
2022-10-23T11:28:59.089Z,100090.19
2022-10-23T11:34:14.490Z,100086.83
2022-10-23T11:39:23.112Z,100079.98
2022-10-23T11:44:40.312Z,100076.70
2022-10-23T11:49:43.801Z,100074.10
2022-10-23T11:54:48.752Z,100070.20
2022-10-23T11:59:57.709Z,100060.94
2022-10-23T12:05:06.429Z,100058.77
2022-10-23T12:10:34.579Z,100050.82
2022-10-23T12:15:38.853Z,100049.42
2022-10-23T12:20:58.617Z,100046.46
2022-10-23T12:26:23.846Z,100039.70
2022-10-23T12:31:47.874Z,100036.16
2022-10-23T12:36:54.614Z,100026.59
2022-10-23T12:42:00.057Z,100017.21
2022-10-23T12:47:05.698Z,100016.13
2022-10-23T12:52:21.717Z,100014.46
2022-10-23T12:57:27.093Z,100020.23
2022-10-23T13:02:32.829Z,100019.11
2022-10-23T13:07:41.459Z,100009.86
2022-10-23T13:12:53.630Z,100005.50
2022-10-23T13:17:56.969Z,100010.24
2022-10-23T13:23:25.469Z,100021.17
2022-10-23T13:28:33.926Z,100018.80
2022-10-23T13:33:44.758Z,100012.67
2022-10-23T13:39:00.656Z,100011.30
2022-10-23T13:44:04.649Z,100002.84
2022-10-23T13:49:08.202Z,99999.98
2022-10-23T13:54:18.345Z,99995.42
2022-10-23T13:59:22.380Z,99989.89
2022-10-23T14:04:27.561Z,99976.42
2022-10-23T14:09:31.881Z,99972.33
2022-10-23T14:14:35.251Z,99970.17
2022-10-23T14:19:45.267Z,99971.63
2022-10-23T14:24:48.882Z,99969.05
2022-10-23T14:29:52.435Z,99962.25
2022-10-23T14:34:56.763Z,99961.13
2022-10-23T14:40:01.033Z,99959.56
2022-10-23T14:45:06.353Z,99963.58
2022-10-23T14:50:13.269Z,99952.76
2022-10-23T14:55:18.328Z,99945.20
2022-10-23T15:00:24.817Z,99948.83
2022-10-23T15:05:29.382Z,99947.54
2022-10-23T15:10:34.336Z,99952.67
2022-10-23T15:15:39.565Z,99950.45
2022-10-23T15:20:54.728Z,99954.45
2022-10-23T15:25:59.818Z,99952.12
2022-10-23T15:31:04.209Z,99954.94
2022-10-23T15:36:08.052Z,99954.73
2022-10-23T15:41:16.819Z,99958.91
2022-10-23T15:46:22.077Z,99958.61
2022-10-23T15:51:26.558Z,99958.16
2022-10-23T15:56:30.173Z,99959.09
2022-10-23T16:01:33.609Z,99961.59
2022-10-23T16:06:37.880Z,99966.61
2022-10-23T16:11:43.078Z,99972.81
2022-10-23T16:16:47.660Z,99976.80
2022-10-23T16:21:51.553Z,99974.33
2022-10-23T16:26:58.572Z,99976.70
2022-10-23T16:32:04.702Z,99974.67
2022-10-23T16:37:08.722Z,99980.54
2022-10-23T16:42:12.865Z,99976.41
2022-10-23T16:47:16.462Z,99967.16
2022-10-23T16:52:20.646Z,99963.83
2022-10-23T16:57:28.624Z,99966.96
2022-10-23T17:02:32.869Z,99968.15
2022-10-23T17:07:39.264Z,99967.17
2022-10-23T17:12:43.122Z,99967.91
2022-10-23T17:17:47.517Z,99967.02
2022-10-23T17:22:51.517Z,99976.04
2022-10-23T17:27:57.446Z,99975.55
2022-10-23T17:33:02.210Z,99983.65
2022-10-23T17:38:07.401Z,99983.66
2022-10-23T17:43:13.519Z,99977.39
2022-10-23T17:48:18.218Z,99976.37
2022-10-23T17:53:23.402Z,99972.00
2022-10-23T17:58:29.762Z,99974.70
2022-10-23T18:03:37.686Z,99974.25
2022-10-23T18:08:45.632Z,99976.59
2022-10-23T18:13:51.394Z,99979.61
2022-10-23T18:18:57.874Z,99978.10
2022-10-23T18:24:03.974Z,99974.76
2022-10-23T18:29:10.439Z,99972.91
2022-10-23T18:34:24.301Z,99971.03
2022-10-23T18:39:30.745Z,99968.22
2022-10-23T18:44:45.984Z,99968.83
2022-10-23T18:49:53.106Z,99971.05
2022-10-23T18:55:01.733Z,99970.02
2022-10-23T19:00:10.441Z,99970.60
2022-10-23T19:05:17.405Z,99966.39
2022-10-23T19:10:26.069Z,99961.30
2022-10-23T19:15:36.894Z,99955.25
2022-10-23T19:20:44.346Z,99948.67
2022-10-23T19:25:52.594Z,99943.17
2022-10-23T19:30:58.008Z,99935.76
2022-10-23T19:36:06.518Z,99940.86
2022-10-23T19:41:13.173Z,99942.67
2022-10-23T19:46:18.496Z,99936.96
2022-10-23T19:51:24.697Z,99933.79
2022-10-23T19:56:29.715Z,99924.61
2022-10-23T20:01:36.202Z,99918.19
2022-10-23T20:06:42.023Z,99907.05
2022-10-23T20:11:53.214Z,99900.30
2022-10-23T20:16:59.034Z,99890.21
2022-10-23T20:22:03.793Z,99883.46
2022-10-23T20:27:10.316Z,99875.79
2022-10-23T20:32:15.078Z,99875.36
2022-10-23T20:37:18.922Z,99869.95
2022-10-23T20:42:23.085Z,99879.02
2022-10-23T20:47:29.073Z,99874.55
2022-10-23T20:57:43.375Z,99887.70
2022-10-23T21:02:51.448Z,99881.77
2022-10-23T21:07:56.686Z,99873.74
2022-10-23T21:13:00.379Z,99865.89
2022-10-23T21:18:13.289Z,99862.71
2022-10-23T21:23:29.113Z,99861.08
2022-10-23T21:28:33.193Z,99867.84
2022-10-23T21:33:37.484Z,99863.13
2022-10-23T21:38:41.474Z,99858.32
2022-10-23T21:43:45.022Z,99860.29
2022-10-23T21:48:48.915Z,99856.14
2022-10-23T21:53:54.328Z,99850.71
2022-10-23T21:59:00.138Z,99842.36
2022-10-23T22:04:03.488Z,99842.19
2022-10-23T22:09:08.142Z,99845.38
2022-10-23T22:14:11.749Z,99831.14
2022-10-23T22:19:17.438Z,99821.27
2022-10-23T22:24:21.045Z,99801.46
2022-10-23T22:29:28.376Z,99785.41
2022-10-23T22:34:51.783Z,99788.80
2022-10-23T22:39:55.384Z,99794.17
2022-10-23T22:44:58.754Z,99796.48
2022-10-23T22:50:02.122Z,99802.86
2022-10-23T22:55:06.429Z,99797.97
2022-10-23T23:00:10.288Z,99798.57
2022-10-23T23:05:14.355Z,99790.20
2022-10-23T23:10:18.077Z,99789.73
2022-10-23T23:15:21.455Z,99792.27
2022-10-23T23:20:25.030Z,99792.73
2022-10-23T23:25:31.541Z,99792.08
2022-10-23T23:30:35.731Z,99796.26
2022-10-23T23:35:45.083Z,99802.73
2022-10-23T23:40:54.255Z,99795.04
2022-10-23T23:45:58.722Z,99791.48
2022-10-23T23:51:02.666Z,99787.27
2022-10-23T23:56:06.927Z,99784.16
